sensor_id;sensor_type;location;lat;lon;timestamp;temperature;humidity
43810;DHT22;29440;48.208;11.162;2023-07-09T00:01:40;20.10;93.20
43810;DHT22;29440;48.208;11.162;2023-07-09T00:04:07;20.10;92.70
43810;DHT22;29440;48.208;11.162;2023-07-09T00:06:34;20.00;92.30
43810;DHT22;29440;48.208;11.162;2023-07-09T00:09:00;20.00;92.40
43810;DHT22;29440;48.208;11.162;2023-07-09T00:11:25;19.90;92.50
43810;DHT22;29440;48.208;11.162;2023-07-09T00:13:51;19.90;92.00
43810;DHT22;29440;48.208;11.162;2023-07-09T00:16:21;19.70;92.30
43810;DHT22;29440;48.208;11.162;2023-07-09T00:18:48;19.90;93.00
43810;DHT22;29440;48.208;11.162;2023-07-09T00:21:18;19.80;92.40
43810;DHT22;29440;48.208;11.162;2023-07-09T00:23:43;19.80;92.40
43810;DHT22;29440;48.208;11.162;2023-07-09T00:26:13;19.80;92.30
43810;DHT22;29440;48.208;11.162;2023-07-09T00:28:39;19.60;92.20
43810;DHT22;29440;48.208;11.162;2023-07-09T00:31:11;19.60;93.90
43810;DHT22;29440;48.208;11.162;2023-07-09T00:33:38;19.60;93.70
43810;DHT22;29440;48.208;11.162;2023-07-09T00:36:15;19.70;93.90
43810;DHT22;29440;48.208;11.162;2023-07-09T00:38:41;19.50;93.10
43810;DHT22;29440;48.208;11.162;2023-07-09T00:41:16;19.60;93.40
43810;DHT22;29440;48.208;11.162;2023-07-09T00:43:46;19.60;93.90
43810;DHT22;29440;48.208;11.162;2023-07-09T00:49:00;19.60;94.30
43810;DHT22;29440;48.208;11.162;2023-07-09T00:51:30;19.30;94.70
43810;DHT22;29440;48.208;11.162;2023-07-09T00:54:01;19.40;94.90
43810;DHT22;29440;48.208;11.162;2023-07-09T00:56:31;19.40;94.30
43810;DHT22;29440;48.208;11.162;2023-07-09T00:59:02;19.40;95.30
43810;DHT22;29440;48.208;11.162;2023-07-09T01:01:31;19.40;94.40
43810;DHT22;29440;48.208;11.162;2023-07-09T01:03:58;19.30;94.20
43810;DHT22;29440;48.208;11.162;2023-07-09T01:06:35;19.20;94.60
43810;DHT22;29440;48.208;11.162;2023-07-09T01:09:04;19.30;94.40
43810;DHT22;29440;48.208;11.162;2023-07-09T01:11:29;19.20;94.70
43810;DHT22;29440;48.208;11.162;2023-07-09T01:13:59;19.20;95.30
43810;DHT22;29440;48.208;11.162;2023-07-09T01:16:30;19.20;94.90
43810;DHT22;29440;48.208;11.162;2023-07-09T01:18:57;19.20;94.50
43810;DHT22;29440;48.208;11.162;2023-07-09T01:21:23;19.30;94.40
43810;DHT22;29440;48.208;11.162;2023-07-09T01:23:50;19.10;94.10
43810;DHT22;29440;48.208;11.162;2023-07-09T01:26:20;18.90;94.70
43810;DHT22;29440;48.208;11.162;2023-07-09T01:28:46;19.00;95.50
43810;DHT22;29440;48.208;11.162;2023-07-09T01:31:13;19.00;95.40
43810;DHT22;29440;48.208;11.162;2023-07-09T01:33:43;19.00;94.60
43810;DHT22;29440;48.208;11.162;2023-07-09T01:36:18;18.90;94.80
43810;DHT22;29440;48.208;11.162;2023-07-09T01:38:49;18.80;96.50
43810;DHT22;29440;48.208;11.162;2023-07-09T01:41:15;18.90;95.70
43810;DHT22;29440;48.208;11.162;2023-07-09T01:43:42;18.80;95.70
43810;DHT22;29440;48.208;11.162;2023-07-09T01:46:10;18.90;95.50
43810;DHT22;29440;48.208;11.162;2023-07-09T01:48:38;18.70;95.30
43810;DHT22;29440;48.208;11.162;2023-07-09T01:51:11;18.90;96.00
43810;DHT22;29440;48.208;11.162;2023-07-09T01:53:38;18.80;95.60
43810;DHT22;29440;48.208;11.162;2023-07-09T01:56:05;18.80;97.00
43810;DHT22;29440;48.208;11.162;2023-07-09T01:58:33;18.60;95.90
43810;DHT22;29440;48.208;11.162;2023-07-09T02:00:59;18.60;95.80
43810;DHT22;29440;48.208;11.162;2023-07-09T02:03:25;18.70;95.60
43810;DHT22;29440;48.208;11.162;2023-07-09T02:05:54;18.50;95.80
43810;DHT22;29440;48.208;11.162;2023-07-09T02:08:20;18.70;95.80
43810;DHT22;29440;48.208;11.162;2023-07-09T02:10:50;18.50;95.70
43810;DHT22;29440;48.208;11.162;2023-07-09T02:13:16;18.60;95.60
43810;DHT22;29440;48.208;11.162;2023-07-09T02:15:45;18.60;96.40
43810;DHT22;29440;48.208;11.162;2023-07-09T02:18:14;18.50;97.00
43810;DHT22;29440;48.208;11.162;2023-07-09T02:20:40;18.40;97.00
43810;DHT22;29440;48.208;11.162;2023-07-09T02:23:06;18.50;96.20
43810;DHT22;29440;48.208;11.162;2023-07-09T02:25:32;18.60;96.00
43810;DHT22;29440;48.208;11.162;2023-07-09T02:27:58;18.50;96.00
43810;DHT22;29440;48.208;11.162;2023-07-09T02:30:24;18.60;96.10
43810;DHT22;29440;48.208;11.162;2023-07-09T02:32:50;18.50;95.70
43810;DHT22;29440;48.208;11.162;2023-07-09T02:35:15;18.30;96.60
43810;DHT22;29440;48.208;11.162;2023-07-09T02:37:41;18.40;97.10
43810;DHT22;29440;48.208;11.162;2023-07-09T02:40:08;18.40;97.70
43810;DHT22;29440;48.208;11.162;2023-07-09T02:42:35;18.40;98.60
43810;DHT22;29440;48.208;11.162;2023-07-09T02:45:01;18.50;98.50
43810;DHT22;29440;48.208;11.162;2023-07-09T02:47:28;18.50;98.70
43810;DHT22;29440;48.208;11.162;2023-07-09T02:49:56;18.40;98.90
43810;DHT22;29440;48.208;11.162;2023-07-09T02:52:21;18.50;98.90
43810;DHT22;29440;48.208;11.162;2023-07-09T02:54:47;18.40;98.60
43810;DHT22;29440;48.208;11.162;2023-07-09T02:57:12;18.60;98.40
43810;DHT22;29440;48.208;11.162;2023-07-09T02:59:38;18.50;99.00
43810;DHT22;29440;48.208;11.162;2023-07-09T03:02:04;18.50;99.80
43810;DHT22;29440;48.208;11.162;2023-07-09T03:04:30;18.60;99.20
43810;DHT22;29440;48.208;11.162;2023-07-09T03:06:56;18.50;99.50
43810;DHT22;29440;48.208;11.162;2023-07-09T03:09:22;18.60;98.80
43810;DHT22;29440;48.208;11.162;2023-07-09T03:11:48;18.50;98.90
43810;DHT22;29440;48.208;11.162;2023-07-09T03:14:14;18.50;98.80
43810;DHT22;29440;48.208;11.162;2023-07-09T03:16:40;18.50;99.00
43810;DHT22;29440;48.208;11.162;2023-07-09T03:19:06;18.60;99.90
43810;DHT22;29440;48.208;11.162;2023-07-09T03:21:32;18.60;99.60
43810;DHT22;29440;48.208;11.162;2023-07-09T03:23:58;18.60;99.90
43810;DHT22;29440;48.208;11.162;2023-07-09T03:26:26;18.50;99.70
43810;DHT22;29440;48.208;11.162;2023-07-09T03:28:52;18.50;99.90
43810;DHT22;29440;48.208;11.162;2023-07-09T03:31:18;18.60;99.90
43810;DHT22;29440;48.208;11.162;2023-07-09T03:33:45;18.50;99.90
43810;DHT22;29440;48.208;11.162;2023-07-09T03:36:11;18.50;99.90
43810;DHT22;29440;48.208;11.162;2023-07-09T03:38:39;18.50;99.90
43810;DHT22;29440;48.208;11.162;2023-07-09T03:41:04;18.40;99.90
43810;DHT22;29440;48.208;11.162;2023-07-09T03:43:31;18.50;99.90
43810;DHT22;29440;48.208;11.162;2023-07-09T03:45:57;18.60;99.90
43810;DHT22;29440;48.208;11.162;2023-07-09T03:48:22;18.70;99.90
43810;DHT22;29440;48.208;11.162;2023-07-09T03:50:48;18.60;99.90
43810;DHT22;29440;48.208;11.162;2023-07-09T03:53:15;18.60;99.90
43810;DHT22;29440;48.208;11.162;2023-07-09T03:55:44;18.70;99.90
43810;DHT22;29440;48.208;11.162;2023-07-09T03:58:10;18.60;99.90
43810;DHT22;29440;48.208;11.162;2023-07-09T04:00:36;18.60;99.90
43810;DHT22;29440;48.208;11.162;2023-07-09T04:03:02;18.70;99.90
43810;DHT22;29440;48.208;11.162;2023-07-09T04:05:28;18.70;99.90
43810;DHT22;29440;48.208;11.162;2023-07-09T04:07:53;18.50;99.90
43810;DHT22;29440;48.208;11.162;2023-07-09T04:10:19;18.70;99.90
43810;DHT22;29440;48.208;11.162;2023-07-09T04:12:45;18.70;99.90
43810;DHT22;29440;48.208;11.162;2023-07-09T04:15:13;18.70;99.90
43810;DHT22;29440;48.208;11.162;2023-07-09T04:17:41;18.80;99.90
43810;DHT22;29440;48.208;11.162;2023-07-09T04:20:08;18.80;99.90
43810;DHT22;29440;48.208;11.162;2023-07-09T04:22:39;18.80;99.90
43810;DHT22;29440;48.208;11.162;2023-07-09T04:25:06;18.80;99.90
43810;DHT22;29440;48.208;11.162;2023-07-09T04:27:32;18.80;99.90
43810;DHT22;29440;48.208;11.162;2023-07-09T04:29:59;18.90;99.90
43810;DHT22;29440;48.208;11.162;2023-07-09T04:32:28;18.80;99.90
43810;DHT22;29440;48.208;11.162;2023-07-09T04:34:53;18.80;99.90
43810;DHT22;29440;48.208;11.162;2023-07-09T04:37:19;18.90;99.90
43810;DHT22;29440;48.208;11.162;2023-07-09T04:39:45;18.90;99.90
43810;DHT22;29440;48.208;11.162;2023-07-09T04:42:14;18.80;99.90
43810;DHT22;29440;48.208;11.162;2023-07-09T04:44:41;18.80;99.90
43810;DHT22;29440;48.208;11.162;2023-07-09T04:47:07;18.80;99.90
43810;DHT22;29440;48.208;11.162;2023-07-09T04:49:33;18.80;99.90
43810;DHT22;29440;48.208;11.162;2023-07-09T04:51:59;18.80;99.90
43810;DHT22;29440;48.208;11.162;2023-07-09T04:54:25;18.80;99.90
43810;DHT22;29440;48.208;11.162;2023-07-09T04:56:51;18.80;99.90
43810;DHT22;29440;48.208;11.162;2023-07-09T04:59:17;18.80;99.90
43810;DHT22;29440;48.208;11.162;2023-07-09T05:01:42;18.90;99.90
43810;DHT22;29440;48.208;11.162;2023-07-09T05:04:08;18.90;99.90
43810;DHT22;29440;48.208;11.162;2023-07-09T05:06:34;19.00;99.90
43810;DHT22;29440;48.208;11.162;2023-07-09T05:09:00;19.10;99.90
43810;DHT22;29440;48.208;11.162;2023-07-09T05:11:25;19.20;99.90
43810;DHT22;29440;48.208;11.162;2023-07-09T05:13:51;19.30;99.90
43810;DHT22;29440;48.208;11.162;2023-07-09T05:16:17;19.60;99.90
43810;DHT22;29440;48.208;11.162;2023-07-09T05:18:42;19.90;99.90
43810;DHT22;29440;48.208;11.162;2023-07-09T05:21:08;20.20;99.90
43810;DHT22;29440;48.208;11.162;2023-07-09T05:23:33;20.50;99.90
43810;DHT22;29440;48.208;11.162;2023-07-09T05:26:00;20.60;99.90
43810;DHT22;29440;48.208;11.162;2023-07-09T05:28:27;20.70;99.90
43810;DHT22;29440;48.208;11.162;2023-07-09T05:30:53;20.70;99.90
43810;DHT22;29440;48.208;11.162;2023-07-09T05:33:18;20.60;99.90
43810;DHT22;29440;48.208;11.162;2023-07-09T05:35:44;20.90;99.90
43810;DHT22;29440;48.208;11.162;2023-07-09T05:38:10;20.90;99.90
43810;DHT22;29440;48.208;11.162;2023-07-09T05:40:36;21.00;99.90
43810;DHT22;29440;48.208;11.162;2023-07-09T05:43:02;21.10;99.90
43810;DHT22;29440;48.208;11.162;2023-07-09T05:45:27;21.20;99.90
43810;DHT22;29440;48.208;11.162;2023-07-09T05:47:53;21.30;99.90
43810;DHT22;29440;48.208;11.162;2023-07-09T05:50:19;21.60;99.90
43810;DHT22;29440;48.208;11.162;2023-07-09T05:52:44;21.70;99.90
43810;DHT22;29440;48.208;11.162;2023-07-09T05:55:10;22.10;99.90
43810;DHT22;29440;48.208;11.162;2023-07-09T05:57:35;23.00;99.90
43810;DHT22;29440;48.208;11.162;2023-07-09T06:00:01;24.30;99.90
43810;DHT22;29440;48.208;11.162;2023-07-09T06:02:38;25.80;98.70
43810;DHT22;29440;48.208;11.162;2023-07-09T06:05:04;27.40;96.10
43810;DHT22;29440;48.208;11.162;2023-07-09T06:07:29;28.70;93.90
43810;DHT22;29440;48.208;11.162;2023-07-09T06:09:55;30.10;91.70
43810;DHT22;29440;48.208;11.162;2023-07-09T06:12:20;31.40;88.90
43810;DHT22;29440;48.208;11.162;2023-07-09T06:14:46;32.40;84.10
43810;DHT22;29440;48.208;11.162;2023-07-09T06:17:12;33.40;80.90
43810;DHT22;29440;48.208;11.162;2023-07-09T06:19:38;34.40;77.90
43810;DHT22;29440;48.208;11.162;2023-07-09T06:22:04;35.10;74.60
43810;DHT22;29440;48.208;11.162;2023-07-09T06:24:30;35.60;72.50
43810;DHT22;29440;48.208;11.162;2023-07-09T06:26:56;36.10;71.10
43810;DHT22;29440;48.208;11.162;2023-07-09T06:29:23;36.70;68.20
43810;DHT22;29440;48.208;11.162;2023-07-09T06:31:48;37.10;66.60
43810;DHT22;29440;48.208;11.162;2023-07-09T06:34:14;37.70;64.70
43810;DHT22;29440;48.208;11.162;2023-07-09T06:36:39;38.30;62.70
43810;DHT22;29440;48.208;11.162;2023-07-09T06:39:05;38.80;61.20
43810;DHT22;29440;48.208;11.162;2023-07-09T06:41:31;39.20;59.30
43810;DHT22;29440;48.208;11.162;2023-07-09T06:43:58;39.70;56.40
43810;DHT22;29440;48.208;11.162;2023-07-09T06:46:23;39.90;56.10
43810;DHT22;29440;48.208;11.162;2023-07-09T06:48:49;39.90;55.40
43810;DHT22;29440;48.208;11.162;2023-07-09T06:51:21;40.20;55.10
43810;DHT22;29440;48.208;11.162;2023-07-09T06:53:47;40.70;54.50
43810;DHT22;29440;48.208;11.162;2023-07-09T06:56:15;41.00;53.30
43810;DHT22;29440;48.208;11.162;2023-07-09T06:58:41;41.20;52.80
43810;DHT22;29440;48.208;11.162;2023-07-09T07:01:07;40.90;51.40
43810;DHT22;29440;48.208;11.162;2023-07-09T07:03:35;40.80;50.80
43810;DHT22;29440;48.208;11.162;2023-07-09T07:06:01;40.70;50.70
43810;DHT22;29440;48.208;11.162;2023-07-09T07:08:27;41.10;51.20
43810;DHT22;29440;48.208;11.162;2023-07-09T07:10:56;40.80;50.00
43810;DHT22;29440;48.208;11.162;2023-07-09T07:13:36;40.90;49.60
43810;DHT22;29440;48.208;11.162;2023-07-09T07:16:04;41.00;50.90
43810;DHT22;29440;48.208;11.162;2023-07-09T07:18:29;40.90;49.70
43810;DHT22;29440;48.208;11.162;2023-07-09T07:20:55;41.10;49.40
43810;DHT22;29440;48.208;11.162;2023-07-09T07:23:21;41.20;49.50
43810;DHT22;29440;48.208;11.162;2023-07-09T07:25:48;41.40;49.30
43810;DHT22;29440;48.208;11.162;2023-07-09T07:28:15;41.20;49.00
43810;DHT22;29440;48.208;11.162;2023-07-09T07:31:07;41.30;48.20
43810;DHT22;29440;48.208;11.162;2023-07-09T07:33:33;41.30;48.10
43810;DHT22;29440;48.208;11.162;2023-07-09T07:35:59;40.50;47.20
43810;DHT22;29440;48.208;11.162;2023-07-09T07:38:25;40.30;49.10
43810;DHT22;29440;48.208;11.162;2023-07-09T07:40:50;39.80;49.60
43810;DHT22;29440;48.208;11.162;2023-07-09T07:43:16;39.50;50.50
43810;DHT22;29440;48.208;11.162;2023-07-09T07:45:42;39.10;50.70
43810;DHT22;29440;48.208;11.162;2023-07-09T07:48:08;38.20;50.40
43810;DHT22;29440;48.208;11.162;2023-07-09T07:50:34;37.50;52.90
43810;DHT22;29440;48.208;11.162;2023-07-09T07:52:59;37.10;52.30
43810;DHT22;29440;48.208;11.162;2023-07-09T07:55:25;36.50;53.10
43810;DHT22;29440;48.208;11.162;2023-07-09T07:57:50;36.30;54.00
43810;DHT22;29440;48.208;11.162;2023-07-09T08:00:16;36.00;52.30
43810;DHT22;29440;48.208;11.162;2023-07-09T08:02:42;35.60;53.20
43810;DHT22;29440;48.208;11.162;2023-07-09T08:05:07;35.20;52.90
43810;DHT22;29440;48.208;11.162;2023-07-09T08:07:33;34.70;54.20
43810;DHT22;29440;48.208;11.162;2023-07-09T08:09:58;34.50;54.10
43810;DHT22;29440;48.208;11.162;2023-07-09T08:12:24;34.30;56.90
43810;DHT22;29440;48.208;11.162;2023-07-09T08:14:50;34.20;57.20
43810;DHT22;29440;48.208;11.162;2023-07-09T08:17:15;34.00;57.20
43810;DHT22;29440;48.208;11.162;2023-07-09T08:19:53;33.80;55.90
43810;DHT22;29440;48.208;11.162;2023-07-09T08:22:20;33.70;55.20
43810;DHT22;29440;48.208;11.162;2023-07-09T08:24:47;33.40;57.40
43810;DHT22;29440;48.208;11.162;2023-07-09T08:27:13;33.30;55.50
43810;DHT22;29440;48.208;11.162;2023-07-09T08:29:39;33.00;54.70
43810;DHT22;29440;48.208;11.162;2023-07-09T08:32:07;32.70;54.60
43810;DHT22;29440;48.208;11.162;2023-07-09T08:34:33;32.40;56.10
43810;DHT22;29440;48.208;11.162;2023-07-09T08:36:58;32.20;57.70
43810;DHT22;29440;48.208;11.162;2023-07-09T08:39:24;32.00;59.30
43810;DHT22;29440;48.208;11.162;2023-07-09T08:42:11;32.00;59.30
43810;DHT22;29440;48.208;11.162;2023-07-09T08:50:38;32.10;57.30
43810;DHT22;29440;48.208;11.162;2023-07-09T08:53:53;32.20;57.70
43810;DHT22;29440;48.208;11.162;2023-07-09T08:55:58;32.30;55.60
43810;DHT22;29440;48.208;11.162;2023-07-09T08:58:29;32.40;57.50
43810;DHT22;29440;48.208;11.162;2023-07-09T09:00:57;32.40;57.30
43810;DHT22;29440;48.208;11.162;2023-07-09T09:05:54;32.40;58.50
43810;DHT22;29440;48.208;11.162;2023-07-09T09:08:40;32.40;58.70
43810;DHT22;29440;48.208;11.162;2023-07-09T09:13:45;32.50;58.20
43810;DHT22;29440;48.208;11.162;2023-07-09T09:16:24;32.60;57.70
43810;DHT22;29440;48.208;11.162;2023-07-09T09:18:55;32.50;57.90
43810;DHT22;29440;48.208;11.162;2023-07-09T09:21:33;32.50;58.30
43810;DHT22;29440;48.208;11.162;2023-07-09T09:24:30;32.60;59.40
43810;DHT22;29440;48.208;11.162;2023-07-09T09:26:58;32.80;59.00
43810;DHT22;29440;48.208;11.162;2023-07-09T09:29:24;32.90;58.50
43810;DHT22;29440;48.208;11.162;2023-07-09T09:31:56;33.00;59.00
43810;DHT22;29440;48.208;11.162;2023-07-09T09:34:26;33.10;56.60
43810;DHT22;29440;48.208;11.162;2023-07-09T09:36:53;33.20;57.40
43810;DHT22;29440;48.208;11.162;2023-07-09T09:39:20;33.30;58.90
43810;DHT22;29440;48.208;11.162;2023-07-09T09:41:46;33.30;56.10
43810;DHT22;29440;48.208;11.162;2023-07-09T09:44:24;33.30;56.70
43810;DHT22;29440;48.208;11.162;2023-07-09T09:46:50;33.40;55.80
43810;DHT22;29440;48.208;11.162;2023-07-09T09:49:16;33.50;56.40
43810;DHT22;29440;48.208;11.162;2023-07-09T09:51:44;33.60;55.60
43810;DHT22;29440;48.208;11.162;2023-07-09T09:54:19;33.60;57.90
43810;DHT22;29440;48.208;11.162;2023-07-09T09:56:47;33.60;57.40
43810;DHT22;29440;48.208;11.162;2023-07-09T09:59:18;33.60;54.70
43810;DHT22;29440;48.208;11.162;2023-07-09T10:01:44;33.60;54.60
43810;DHT22;29440;48.208;11.162;2023-07-09T10:04:16;33.40;54.70
43810;DHT22;29440;48.208;11.162;2023-07-09T10:06:50;33.40;57.80
43810;DHT22;29440;48.208;11.162;2023-07-09T10:09:26;33.20;54.70
43810;DHT22;29440;48.208;11.162;2023-07-09T10:12:00;33.10;56.70
43810;DHT22;29440;48.208;11.162;2023-07-09T10:14:41;32.90;56.20
43810;DHT22;29440;48.208;11.162;2023-07-09T10:20:37;33.00;54.90
43810;DHT22;29440;48.208;11.162;2023-07-09T10:26:01;33.10;55.70
43810;DHT22;29440;48.208;11.162;2023-07-09T10:31:41;33.30;58.00
43810;DHT22;29440;48.208;11.162;2023-07-09T10:39:40;33.60;55.20
43810;DHT22;29440;48.208;11.162;2023-07-09T10:42:17;33.60;53.80
43810;DHT22;29440;48.208;11.162;2023-07-09T10:44:48;33.80;53.00
43810;DHT22;29440;48.208;11.162;2023-07-09T10:47:33;33.70;53.10
43810;DHT22;29440;48.208;11.162;2023-07-09T10:50:01;33.60;52.60
43810;DHT22;29440;48.208;11.162;2023-07-09T10:52:36;33.60;53.10
43810;DHT22;29440;48.208;11.162;2023-07-09T10:55:15;33.60;52.10
43810;DHT22;29440;48.208;11.162;2023-07-09T10:58:00;33.60;52.90
43810;DHT22;29440;48.208;11.162;2023-07-09T11:00:38;33.60;52.20
43810;DHT22;29440;48.208;11.162;2023-07-09T11:03:19;33.60;53.20
43810;DHT22;29440;48.208;11.162;2023-07-09T11:05:48;33.70;53.60
43810;DHT22;29440;48.208;11.162;2023-07-09T11:08:21;33.80;54.20
43810;DHT22;29440;48.208;11.162;2023-07-09T11:11:01;33.90;52.40
43810;DHT22;29440;48.208;11.162;2023-07-09T11:13:34;33.70;52.20
43810;DHT22;29440;48.208;11.162;2023-07-09T11:16:01;33.80;53.10
43810;DHT22;29440;48.208;11.162;2023-07-09T11:18:31;33.90;52.40
43810;DHT22;29440;48.208;11.162;2023-07-09T11:21:15;33.90;54.20
43810;DHT22;29440;48.208;11.162;2023-07-09T11:23:50;34.10;53.20
43810;DHT22;29440;48.208;11.162;2023-07-09T11:29:09;34.40;52.30
43810;DHT22;29440;48.208;11.162;2023-07-09T11:42:01;34.50;51.90
43810;DHT22;29440;48.208;11.162;2023-07-09T11:44:30;34.30;51.70
43810;DHT22;29440;48.208;11.162;2023-07-09T11:47:22;34.30;53.20
43810;DHT22;29440;48.208;11.162;2023-07-09T11:49:55;34.40;52.70
43810;DHT22;29440;48.208;11.162;2023-07-09T11:52:30;34.30;51.60
43810;DHT22;29440;48.208;11.162;2023-07-09T11:54:57;34.00;51.90
43810;DHT22;29440;48.208;11.162;2023-07-09T11:57:22;33.90;53.40
43810;DHT22;29440;48.208;11.162;2023-07-09T11:59:48;33.70;53.00
43810;DHT22;29440;48.208;11.162;2023-07-09T12:02:23;33.80;52.50
43810;DHT22;29440;48.208;11.162;2023-07-09T12:04:50;34.00;53.40
43810;DHT22;29440;48.208;11.162;2023-07-09T12:07:16;33.90;53.10
43810;DHT22;29440;48.208;11.162;2023-07-09T12:09:50;33.90;53.50
43810;DHT22;29440;48.208;11.162;2023-07-09T12:12:25;33.90;52.50
43810;DHT22;29440;48.208;11.162;2023-07-09T12:14:51;34.00;54.30
43810;DHT22;29440;48.208;11.162;2023-07-09T12:17:18;34.00;53.00
43810;DHT22;29440;48.208;11.162;2023-07-09T12:19:44;34.20;53.30
43810;DHT22;29440;48.208;11.162;2023-07-09T12:22:17;34.30;53.00
43810;DHT22;29440;48.208;11.162;2023-07-09T12:24:44;34.30;53.20
43810;DHT22;29440;48.208;11.162;2023-07-09T12:27:19;34.30;55.00
43810;DHT22;29440;48.208;11.162;2023-07-09T12:29:45;34.50;51.80
43810;DHT22;29440;48.208;11.162;2023-07-09T12:32:13;34.70;53.80
43810;DHT22;29440;48.208;11.162;2023-07-09T12:34:39;34.80;53.50
43810;DHT22;29440;48.208;11.162;2023-07-09T12:37:04;34.80;51.70
43810;DHT22;29440;48.208;11.162;2023-07-09T12:39:33;34.90;51.20
43810;DHT22;29440;48.208;11.162;2023-07-09T12:42:02;34.90;51.90
43810;DHT22;29440;48.208;11.162;2023-07-09T12:44:33;35.00;50.90
43810;DHT22;29440;48.208;11.162;2023-07-09T12:46:59;35.10;51.40
43810;DHT22;29440;48.208;11.162;2023-07-09T12:49:27;35.10;50.10
43810;DHT22;29440;48.208;11.162;2023-07-09T12:52:00;34.90;50.30
43810;DHT22;29440;48.208;11.162;2023-07-09T12:54:28;34.80;51.60
43810;DHT22;29440;48.208;11.162;2023-07-09T12:56:55;34.80;52.20
43810;DHT22;29440;48.208;11.162;2023-07-09T12:59:26;34.80;51.50
43810;DHT22;29440;48.208;11.162;2023-07-09T13:02:00;34.90;50.20
43810;DHT22;29440;48.208;11.162;2023-07-09T13:05:02;34.90;51.20
43810;DHT22;29440;48.208;11.162;2023-07-09T13:07:36;34.90;51.70
43810;DHT22;29440;48.208;11.162;2023-07-09T13:12:40;35.10;50.20
43810;DHT22;29440;48.208;11.162;2023-07-09T13:15:24;34.90;49.50
43810;DHT22;29440;48.208;11.162;2023-07-09T13:17:57;35.20;49.10
43810;DHT22;29440;48.208;11.162;2023-07-09T13:20:23;35.10;50.10
43810;DHT22;29440;48.208;11.162;2023-07-09T13:22:48;35.20;49.10
43810;DHT22;29440;48.208;11.162;2023-07-09T13:25:14;35.00;49.10
43810;DHT22;29440;48.208;11.162;2023-07-09T13:27:39;34.90;49.10
43810;DHT22;29440;48.208;11.162;2023-07-09T13:30:05;34.90;50.90
43810;DHT22;29440;48.208;11.162;2023-07-09T13:32:31;35.00;51.00
43810;DHT22;29440;48.208;11.162;2023-07-09T13:34:58;35.00;49.10
43810;DHT22;29440;48.208;11.162;2023-07-09T13:37:23;35.00;49.10
43810;DHT22;29440;48.208;11.162;2023-07-09T13:39:49;35.10;48.00
43810;DHT22;29440;48.208;11.162;2023-07-09T13:42:17;35.00;48.60
43810;DHT22;29440;48.208;11.162;2023-07-09T13:44:44;35.00;49.00
43810;DHT22;29440;48.208;11.162;2023-07-09T13:47:13;35.10;49.70
43810;DHT22;29440;48.208;11.162;2023-07-09T13:49:42;35.10;50.30
43810;DHT22;29440;48.208;11.162;2023-07-09T13:52:14;35.20;49.10
43810;DHT22;29440;48.208;11.162;2023-07-09T13:54:40;35.20;48.30
43810;DHT22;29440;48.208;11.162;2023-07-09T13:57:09;35.20;48.60
43810;DHT22;29440;48.208;11.162;2023-07-09T13:59:37;35.10;48.00
43810;DHT22;29440;48.208;11.162;2023-07-09T14:04:41;35.20;48.10
43810;DHT22;29440;48.208;11.162;2023-07-09T14:07:26;35.30;47.60
43810;DHT22;29440;48.208;11.162;2023-07-09T14:09:52;35.40;48.90
43810;DHT22;29440;48.208;11.162;2023-07-09T14:12:18;35.40;48.60
43810;DHT22;29440;48.208;11.162;2023-07-09T14:14:50;35.40;47.80
43810;DHT22;29440;48.208;11.162;2023-07-09T14:17:17;35.50;48.20
43810;DHT22;29440;48.208;11.162;2023-07-09T14:19:42;35.50;48.10
43810;DHT22;29440;48.208;11.162;2023-07-09T14:22:35;35.30;49.00
43810;DHT22;29440;48.208;11.162;2023-07-09T14:25:03;35.30;47.60
43810;DHT22;29440;48.208;11.162;2023-07-09T14:27:29;35.40;47.30
43810;DHT22;29440;48.208;11.162;2023-07-09T14:29:54;35.40;48.00
43810;DHT22;29440;48.208;11.162;2023-07-09T14:34:58;35.60;49.00
43810;DHT22;29440;48.208;11.162;2023-07-09T14:37:28;35.60;47.70
43810;DHT22;29440;48.208;11.162;2023-07-09T14:39:54;35.50;47.00
43810;DHT22;29440;48.208;11.162;2023-07-09T14:42:19;35.60;46.60
43810;DHT22;29440;48.208;11.162;2023-07-09T14:44:47;35.60;46.50
43810;DHT22;29440;48.208;11.162;2023-07-09T14:47:16;35.40;47.10
43810;DHT22;29440;48.208;11.162;2023-07-09T14:49:50;35.40;46.90
43810;DHT22;29440;48.208;11.162;2023-07-09T14:52:19;35.40;47.30
43810;DHT22;29440;48.208;11.162;2023-07-09T14:54:46;35.40;47.20
43810;DHT22;29440;48.208;11.162;2023-07-09T14:57:21;35.30;47.00
43810;DHT22;29440;48.208;11.162;2023-07-09T14:59:48;35.50;48.20
43810;DHT22;29440;48.208;11.162;2023-07-09T15:02:36;35.40;46.90
43810;DHT22;29440;48.208;11.162;2023-07-09T15:05:09;35.40;48.00
43810;DHT22;29440;48.208;11.162;2023-07-09T15:07:36;35.40;47.10
43810;DHT22;29440;48.208;11.162;2023-07-09T15:10:02;35.30;48.60
43810;DHT22;29440;48.208;11.162;2023-07-09T15:12:35;35.20;47.40
43810;DHT22;29440;48.208;11.162;2023-07-09T15:17:38;35.30;46.80
43810;DHT22;29440;48.208;11.162;2023-07-09T15:20:04;35.30;47.40
43810;DHT22;29440;48.208;11.162;2023-07-09T15:22:34;35.30;47.00
43810;DHT22;29440;48.208;11.162;2023-07-09T15:25:00;35.20;47.00
43810;DHT22;29440;48.208;11.162;2023-07-09T15:27:27;35.10;47.00
43810;DHT22;29440;48.208;11.162;2023-07-09T15:29:52;35.20;47.80
43810;DHT22;29440;48.208;11.162;2023-07-09T15:32:18;35.00;47.40
43810;DHT22;29440;48.208;11.162;2023-07-09T15:34:44;35.00;47.20
43810;DHT22;29440;48.208;11.162;2023-07-09T15:37:15;34.90;48.00
43810;DHT22;29440;48.208;11.162;2023-07-09T15:39:42;35.10;48.80
43810;DHT22;29440;48.208;11.162;2023-07-09T15:42:10;35.00;47.10
43810;DHT22;29440;48.208;11.162;2023-07-09T15:44:36;35.00;47.30
43810;DHT22;29440;48.208;11.162;2023-07-09T15:47:02;34.90;48.40
43810;DHT22;29440;48.208;11.162;2023-07-09T15:49:29;34.90;49.00
43810;DHT22;29440;48.208;11.162;2023-07-09T15:51:55;34.80;47.40
43810;DHT22;29440;48.208;11.162;2023-07-09T15:54:22;34.80;48.30
43810;DHT22;29440;48.208;11.162;2023-07-09T15:56:50;34.80;47.70
43810;DHT22;29440;48.208;11.162;2023-07-09T15:59:31;34.70;48.60
43810;DHT22;29440;48.208;11.162;2023-07-09T16:01:58;34.50;47.80
43810;DHT22;29440;48.208;11.162;2023-07-09T16:04:25;34.50;47.60
43810;DHT22;29440;48.208;11.162;2023-07-09T16:06:51;34.50;48.40
43810;DHT22;29440;48.208;11.162;2023-07-09T16:09:17;34.50;49.20
43810;DHT22;29440;48.208;11.162;2023-07-09T16:11:49;34.50;48.60
43810;DHT22;29440;48.208;11.162;2023-07-09T16:14:25;34.40;48.10
43810;DHT22;29440;48.208;11.162;2023-07-09T16:16:53;34.40;49.90